Impacts TAF Board
For situational awareness. Not to be used for flight planning purposes.
IDs:

KLGA - New York/La Guardia, NY, US

Issued at 0539 UTC 23 Feb 2019
Updated at 0633 UTC 23 Feb 2019
Potential Impact None Slight Moderate High
Time0551Z 23/07Z 23/08Z 23/09Z 23/10Z 23/11Z 23/12Z 23/13Z 23/14Z 23/15Z 23/16Z 23/17Z 23/18Z 23/19Z>>
Type OBS PRVL PRVL PRVL PRVL PRVL PRVL PRVL PRVL PRVL PRVL PRVL PRVL PRVL
VIS 10 >6 >6 >6 >6 >6 >6 >6 >6 >6 >6 >6 >6 >6
CIG 250 250 250 250 250 250 250 250 250 250 250 250 200 200
Cover OVC BKN BKN BKN BKN BKN BKN BKN BKN BKN BKN BKN BKN BKN
FltCat VFR VFR VFR VFR VFR VFR VFR VFR VFR VFR VFR VFR VFR VFR
WX -- -- -- -- -- -- -- -- -- -- -- -- -- --
WDir 20 360 360 20 20 20 50 50 50 50 50 50 120 120
WSpd 5 9 9 7 7 7 6 6 6 6 6 6 6 6
WGst -- -- -- -- -- -- -- -- -- -- -- -- -- --
Raw TAF
KLGA 230539Z 2306/2412 36009KT P6SM BKN250
  FM230900 02007KT P6SM BKN250
  FM231200 05006KT P6SM BKN250
  FM231800 12006KT P6SM FEW030 BKN200
  FM240200 10006KT P6SM VCSH SCT030 OVC050
  FM240500 09007KT 6SM -RA SCT010 OVC025
  FM240700 08009KT 5SM -RA BR OVC015
  FM240900 09012G20KT 2SM RA BR OVC006 WS020/13045KT


Raw METAR
KLGA 230551Z 02005KT 10SM OVC250 02/M05 A3047 RMK AO2 SLP317 T00221050 10050 20022 51011
KLGA 230451Z 35010KT 10SM OVC250 03/M06 A3047 RMK AO2 SLP316 T00281056 400610028
KLGA 230351Z 33008KT 10SM BKN250 03/M06 A3045 RMK AO2 SLP311 T00281056

METAR Board
Radar Display
Forecast Discussion
For situational awareness. Not to be used for flight planning purposes.